RJOP(METAR)
12/16 16:00
METAR RJOP 160700Z 31021KT 9999 FEW030 SCT050 BKN070 11/02 Q1014 RMK
1CU030 3SC050 5AC070 A2996 PEAK GUST 29KT=
戻る
トップページへ戻る
IMOC Co,.Ltd.